createdAt,value
2018-01-27T00:01:09.469Z,3.70
2018-01-27T00:06:11.998Z,3.33
2018-01-27T00:11:14.487Z,4.63
2018-01-27T00:16:18.163Z,4.90
2018-01-27T00:21:20.694Z,5.00
2018-01-27T00:26:23.292Z,4.77
2018-01-27T00:31:26.764Z,4.70
2018-01-27T00:36:29.271Z,4.77
2018-01-27T00:41:31.854Z,4.80
2018-01-27T00:46:35.141Z,4.10
2018-01-27T00:51:37.722Z,5.00
2018-01-27T00:56:40.335Z,4.80
2018-01-27T01:01:42.852Z,5.00
2018-01-27T01:06:46.735Z,4.90
2018-01-27T01:11:49.490Z,4.97
2018-01-27T01:16:52.028Z,5.90
2018-01-27T01:21:54.755Z,5.30
2018-01-27T01:26:57.411Z,4.70
2018-01-27T01:32:00.211Z,4.70
2018-01-27T01:37:04.561Z,5.03
2018-01-27T01:42:07.839Z,4.80
2018-01-27T01:47:10.386Z,5.00
2018-01-27T01:52:13.989Z,4.67
2018-01-27T01:57:17.381Z,4.20
2018-01-27T02:02:19.944Z,3.93
2018-01-27T02:07:22.559Z,4.50
2018-01-27T02:12:25.870Z,3.90
2018-01-27T02:17:28.898Z,4.40
2018-01-27T02:22:32.723Z,3.60
2018-01-27T02:27:35.803Z,4.00
2018-01-27T02:32:38.312Z,4.20
2018-01-27T02:37:42.319Z,4.00
2018-01-27T02:42:45.326Z,3.60
2018-01-27T02:47:48.399Z,4.40
2018-01-27T02:52:51.867Z,3.83
2018-01-27T02:57:55.160Z,3.57
2018-01-27T03:02:58.664Z,3.83
2018-01-27T03:08:01.228Z,3.87
2018-01-27T03:13:03.755Z,3.60
2018-01-27T03:18:06.307Z,3.07
2018-01-27T03:23:08.866Z,3.03
2018-01-27T03:28:11.564Z,3.37
2018-01-27T03:33:14.151Z,3.70
2018-01-27T03:38:17.541Z,3.60
2018-01-27T03:43:20.097Z,3.90
2018-01-27T03:48:22.635Z,2.80
2018-01-27T03:53:25.865Z,2.77
2018-01-27T03:58:29.463Z,3.40
2018-01-27T04:03:32.417Z,3.20
2018-01-27T04:08:34.981Z,3.27
2018-01-27T04:13:38.422Z,3.00
2018-01-27T04:18:41.630Z,2.90
2018-01-27T04:23:44.509Z,3.23
2018-01-27T04:28:47.269Z,2.83
2018-01-27T04:33:49.942Z,2.93
2018-01-27T04:38:53.053Z,2.77
2018-01-27T04:43:55.612Z,3.10
2018-01-27T04:48:58.171Z,2.60
2018-01-27T04:54:00.907Z,2.90
2018-01-27T04:59:04.832Z,2.80
2018-01-27T05:04:08.161Z,3.03
2018-01-27T05:09:11.715Z,3.13
2018-01-27T05:14:14.246Z,2.93
2018-01-27T05:19:16.931Z,2.57
2018-01-27T05:24:19.968Z,2.70
2018-01-27T05:29:22.503Z,2.70
2018-01-27T05:34:26.525Z,2.90
2018-01-27T05:39:29.427Z,2.30
2018-01-27T05:44:31.939Z,3.00
2018-01-27T05:49:34.514Z,2.67
2018-01-27T05:54:37.094Z,2.60
2018-01-27T05:59:39.803Z,2.50
2018-01-27T06:04:43.064Z,1.83
2018-01-27T06:09:46.386Z,3.60
2018-01-27T06:14:50.034Z,2.70
2018-01-27T06:19:52.602Z,2.40
2018-01-27T06:24:56.100Z,2.50
2018-01-27T06:29:58.799Z,2.73
2018-01-27T06:35:02.196Z,3.00
2018-01-27T06:40:05.002Z,2.40
2018-01-27T06:45:08.659Z,3.17
2018-01-27T06:50:11.205Z,2.60
2018-01-27T06:55:13.757Z,2.90
2018-01-27T07:00:16.253Z,2.10
2018-01-27T07:05:19.155Z,2.83
2018-01-27T07:10:22.490Z,2.43
2018-01-27T07:15:25.037Z,2.30
2018-01-27T07:20:27.552Z,2.30
2018-01-27T07:25:30.068Z,2.10
2018-01-27T07:30:32.617Z,1.93
2018-01-27T07:35:35.150Z,2.70
2018-01-27T07:40:37.942Z,1.80
2018-01-27T07:45:41.018Z,2.20
2018-01-27T07:50:44.000Z,2.30
2018-01-27T07:55:47.833Z,2.27
2018-01-27T08:00:50.429Z,2.20
2018-01-27T08:05:53.879Z,1.87
2018-01-27T08:10:56.574Z,2.17
2018-01-27T08:15:59.888Z,3.40
2018-01-27T08:21:03.182Z,1.73
2018-01-27T08:26:06.078Z,1.70
2018-01-27T08:31:08.613Z,2.23
2018-01-27T08:36:11.855Z,2.13
2018-01-27T08:41:14.578Z,2.07
2018-01-27T08:46:17.113Z,2.07
2018-01-27T08:51:20.635Z,2.10
2018-01-27T08:56:23.333Z,2.47
2018-01-27T09:01:26.011Z,1.83
2018-01-27T09:06:28.695Z,2.17
2018-01-27T09:11:32.355Z,1.87
2018-01-27T09:16:35.100Z,1.80
2018-01-27T09:21:38.523Z,3.63
2018-01-27T09:26:41.190Z,2.97
2018-01-27T09:31:44.121Z,4.40
2018-01-27T09:36:46.849Z,3.63
2018-01-27T09:41:49.407Z,4.20
2018-01-27T09:46:52.904Z,3.70
2018-01-27T09:51:55.539Z,4.03
2018-01-27T09:56:58.143Z,3.07
2018-01-27T10:02:00.703Z,3.63
2018-01-27T10:07:03.873Z,2.93
2018-01-27T10:12:07.167Z,3.40
2018-01-27T10:17:09.802Z,3.10
2018-01-27T10:22:13.359Z,3.10
2018-01-27T10:27:16.051Z,3.37
2018-01-27T10:32:19.348Z,3.20
2018-01-27T10:37:21.903Z,2.80
2018-01-27T10:42:24.458Z,3.30
2018-01-27T10:47:27.044Z,2.70
2018-01-27T10:52:29.849Z,2.90
2018-01-27T10:57:32.492Z,3.10
2018-01-27T11:02:35.183Z,3.77
2018-01-27T11:07:37.720Z,2.80
2018-01-27T11:12:41.414Z,3.33
2018-01-27T11:17:44.032Z,2.77
2018-01-27T11:22:46.767Z,2.83
2018-01-27T11:27:49.640Z,2.73
2018-01-27T11:32:53.082Z,3.30
2018-01-27T11:37:57.183Z,3.10
2018-01-27T11:43:01.053Z,2.57
2018-01-27T11:48:04.480Z,2.63
2018-01-27T11:53:07.009Z,2.77
2018-01-27T11:58:09.606Z,2.80
2018-01-27T12:03:13.028Z,3.27
2018-01-27T12:08:15.583Z,2.63
2018-01-27T12:13:18.151Z,2.63
2018-01-27T12:18:20.845Z,2.40
2018-01-27T12:23:23.402Z,2.80
2018-01-27T12:28:25.930Z,2.40
2018-01-27T12:33:29.807Z,3.00
2018-01-27T12:38:33.205Z,3.00
2018-01-27T12:43:35.927Z,2.73
2018-01-27T12:48:39.258Z,3.50
2018-01-27T12:53:41.789Z,2.53
2018-01-27T12:58:44.860Z,3.10
2018-01-27T13:03:48.163Z,3.13
2018-01-27T13:08:51.455Z,4.20
2018-01-27T13:13:54.221Z,3.30
2018-01-27T13:18:56.803Z,3.97
2018-01-27T13:23:59.370Z,4.70
2018-01-27T13:29:02.063Z,4.07
2018-01-27T13:34:04.600Z,4.30
2018-01-27T13:39:07.147Z,4.70
2018-01-27T13:44:10.530Z,3.53
2018-01-27T13:49:13.123Z,3.90
2018-01-27T13:54:16.154Z,10.80
2018-01-27T13:59:19.348Z,24.53
2018-01-27T14:04:22.108Z,42.20
2018-01-27T14:09:24.712Z,46.90
2018-01-27T14:14:27.263Z,45.57
2018-01-27T14:19:29.813Z,44.23
2018-01-27T14:24:32.688Z,40.67
2018-01-27T14:29:35.244Z,37.50
2018-01-27T14:34:37.787Z,33.07
2018-01-27T14:39:40.375Z,31.60
2018-01-27T14:44:43.023Z,28.47
2018-01-27T14:49:46.367Z,26.43
2018-01-27T14:54:48.929Z,24.80
2018-01-27T14:59:52.225Z,23.53
2018-01-27T15:04:54.751Z,21.93
2018-01-27T15:09:57.436Z,19.87
2018-01-27T15:15:00.060Z,18.80
2018-01-27T15:20:02.682Z,18.30
2018-01-27T15:25:05.286Z,16.33
2018-01-27T15:30:08.786Z,15.80
2018-01-27T15:35:11.353Z,14.47
2018-01-27T15:40:13.903Z,13.23
2018-01-27T15:45:16.618Z,13.07
2018-01-27T15:50:19.419Z,13.10
2018-01-27T15:55:23.629Z,12.10
2018-01-27T16:00:26.888Z,11.50
2018-01-27T16:05:29.988Z,9.90
2018-01-27T16:10:33.973Z,9.47
2018-01-27T16:15:36.614Z,9.53
2018-01-27T16:20:39.711Z,9.13
2018-01-27T16:25:51.038Z,8.17
2018-01-27T16:30:53.604Z,7.97
2018-01-27T16:35:56.461Z,7.13
2018-01-27T16:41:00.125Z,6.50
2018-01-27T16:46:02.791Z,7.33
2018-01-27T16:51:06.151Z,6.63
2018-01-27T16:56:09.261Z,6.50
2018-01-27T17:01:12.311Z,5.80
2018-01-27T17:06:14.810Z,5.97
2018-01-27T17:11:17.650Z,5.67
2018-01-27T17:16:20.762Z,6.07
2018-01-27T17:21:23.322Z,5.43
2018-01-27T17:26:25.848Z,5.37
2018-01-27T17:31:28.522Z,5.20
2018-01-27T17:36:31.068Z,4.90
2018-01-27T17:41:33.991Z,4.93
2018-01-27T17:46:36.500Z,4.63
2018-01-27T17:51:39.204Z,4.50
2018-01-27T17:56:41.737Z,4.83
2018-01-27T18:01:44.347Z,5.40
2018-01-27T18:06:47.799Z,4.70
2018-01-27T18:11:50.358Z,5.00
2018-01-27T18:16:52.920Z,4.90
2018-01-27T18:21:56.147Z,4.53
2018-01-27T18:26:58.764Z,4.17
2018-01-27T18:32:01.702Z,4.50
2018-01-27T18:37:05.046Z,4.60
2018-01-27T18:42:07.834Z,4.80
2018-01-27T18:47:11.293Z,3.83
2018-01-27T18:52:13.845Z,4.20
2018-01-27T18:57:17.466Z,4.97
2018-01-27T19:02:21.718Z,5.10
2018-01-27T19:07:24.499Z,4.40
2018-01-27T19:12:27.191Z,5.47
2018-01-27T19:17:30.442Z,4.60
2018-01-27T19:22:33.279Z,4.67
2018-01-27T19:27:36.305Z,5.30
2018-01-27T19:32:39.081Z,6.77
2018-01-27T19:37:41.659Z,4.50
2018-01-27T19:42:45.221Z,4.57
2018-01-27T19:47:48.919Z,4.80
2018-01-27T19:52:51.545Z,4.00
2018-01-27T19:57:54.973Z,4.20
2018-01-27T20:02:57.731Z,5.07
2018-01-27T20:08:01.047Z,4.87
2018-01-27T20:13:04.370Z,4.93
2018-01-27T20:18:07.690Z,5.37
2018-01-27T20:23:11.216Z,5.10
2018-01-27T20:28:15.054Z,5.23
2018-01-27T20:33:17.608Z,5.40
2018-01-27T20:38:20.440Z,5.30
2018-01-27T20:43:23.825Z,5.40
2018-01-27T20:48:26.614Z,5.20
2018-01-27T20:53:29.518Z,5.47
2018-01-27T20:58:32.077Z,5.33
2018-01-27T21:03:34.915Z,5.70
2018-01-27T21:08:37.461Z,5.40
2018-01-27T21:13:40.807Z,5.67
2018-01-27T21:18:43.970Z,5.53
2018-01-27T21:23:49.349Z,4.90
2018-01-27T21:28:51.915Z,5.23
2018-01-27T21:33:55.725Z,5.57
2018-01-27T21:38:59.748Z,5.43
2018-01-27T21:44:02.285Z,6.07
2018-01-27T21:49:04.845Z,6.07
2018-01-27T21:54:08.169Z,6.70
2018-01-27T21:59:10.711Z,6.73
2018-01-27T22:04:13.271Z,5.30
2018-01-27T22:09:17.225Z,5.40
2018-01-27T22:14:20.474Z,5.37
2018-01-27T22:19:23.500Z,4.90
2018-01-27T22:24:27.313Z,4.50
2018-01-27T22:29:32.376Z,5.23
2018-01-27T22:34:35.713Z,4.37
2018-01-27T22:39:38.714Z,4.57
2018-01-27T22:44:41.588Z,4.57
2018-01-27T22:49:44.223Z,4.03
2018-01-27T22:54:47.461Z,3.63
2018-01-27T22:59:50.413Z,3.30
2018-01-27T23:04:52.937Z,3.30
2018-01-27T23:09:57.351Z,3.57
2018-01-27T23:15:00.426Z,3.47
2018-01-27T23:20:03.195Z,3.57
2018-01-27T23:25:06.134Z,3.57
2018-01-27T23:30:09.836Z,2.90
2018-01-27T23:35:12.369Z,2.97
2018-01-27T23:40:15.270Z,2.93
2018-01-27T23:45:17.804Z,2.60
2018-01-27T23:50:20.372Z,2.90
2018-01-27T23:55:23.006Z,3.03
